createdAt,value
2023-03-04T00:00:12.627Z,93697.66
2023-03-04T00:00:46.467Z,93697.66
2023-03-04T00:01:18.073Z,93697.03
2023-03-04T00:01:50.667Z,93691.69
2023-03-04T00:02:22.455Z,93699.63
2023-03-04T00:02:54.168Z,93695.25
2023-03-04T00:03:25.847Z,93690.88
2023-03-04T00:03:57.493Z,93696.88
2023-03-04T00:04:29.070Z,93692.47
2023-03-04T00:05:00.698Z,93691.69
2023-03-04T00:05:32.792Z,93688.28
2023-03-04T00:06:05.250Z,93691.69
2023-03-04T00:06:36.810Z,93683.91
2023-03-04T00:07:08.552Z,93687.31
2023-03-04T00:07:40.184Z,93685.31
2023-03-04T00:08:11.875Z,93687.91
2023-03-04T00:08:43.528Z,93693.06
2023-03-04T00:09:15.140Z,93686.91
2023-03-04T00:09:47.247Z,93679.94
2023-03-04T00:10:19.064Z,93689.69
2023-03-04T00:10:50.705Z,93688.06
2023-03-04T00:11:22.360Z,93684.72
2023-03-04T00:11:54.073Z,93691.69
2023-03-04T00:12:25.682Z,93689.28
2023-03-04T00:12:57.301Z,93690.25
2023-03-04T00:13:28.981Z,93688.47
2023-03-04T00:14:00.904Z,93687.66
2023-03-04T00:14:32.461Z,93686.06
2023-03-04T00:15:04.308Z,93688.88
2023-03-04T00:15:35.868Z,93690.44
2023-03-04T00:16:07.983Z,93687.25
2023-03-04T00:16:39.652Z,93691.63
2023-03-04T00:17:11.377Z,93685.66
2023-03-04T00:17:43.026Z,93686.47
2023-03-04T00:18:14.623Z,93689.84
2023-03-04T00:18:46.204Z,93689.84
2023-03-04T00:19:17.826Z,93693.25
2023-03-04T00:19:49.462Z,93691.63
2023-03-04T00:20:21.134Z,93689.22
2023-03-04T00:20:52.724Z,93692.03
2023-03-04T00:21:24.900Z,93694.63
2023-03-04T00:21:56.746Z,93683.66
2023-03-04T00:22:28.334Z,93688.03
2023-03-04T00:22:59.947Z,93692.41
2023-03-04T00:23:31.647Z,93690.78
2023-03-04T00:24:03.488Z,93695.97
2023-03-04T00:24:35.331Z,93692.78
2023-03-04T00:25:07.484Z,93697.16
2023-03-04T00:25:39.126Z,93696.38
2023-03-04T00:26:10.825Z,93698.94
2023-03-04T00:26:42.518Z,93699.94
2023-03-04T00:27:14.128Z,93700.75
2023-03-04T00:27:45.791Z,93696.53
2023-03-04T00:28:17.459Z,93704.31
2023-03-04T00:28:49.059Z,93699.94
2023-03-04T00:29:22.886Z,93699.94
2023-03-04T00:29:54.498Z,93699.13
2023-03-04T00:30:26.140Z,93704.31
2023-03-04T00:30:58.015Z,93695.75
2023-03-04T00:31:29.625Z,93696.72
2023-03-04T00:32:01.342Z,93705.50
2023-03-04T00:32:33.258Z,93700.50
2023-03-04T00:33:04.879Z,93697.13
2023-03-04T00:33:36.887Z,93695.50
2023-03-04T00:34:08.552Z,93699.88
2023-03-04T00:34:40.784Z,93705.06
2023-03-04T00:35:12.476Z,93703.28
2023-03-04T00:35:44.219Z,93697.50
2023-03-04T00:36:15.883Z,93704.25
2023-03-04T00:36:47.595Z,93693.91
2023-03-04T00:37:19.190Z,93697.50
2023-03-04T00:37:51.045Z,93696.50
2023-03-04T00:38:22.750Z,93695.72
2023-03-04T00:38:54.397Z,93690.72
2023-03-04T00:39:25.981Z,93691.31
2023-03-04T00:39:57.593Z,93688.72
2023-03-04T00:40:29.200Z,93692.91
2023-03-04T00:41:00.883Z,93686.75
2023-03-04T00:41:32.520Z,93694.53
2023-03-04T00:42:04.194Z,93693.53
2023-03-04T00:42:35.849Z,93691.13
2023-03-04T00:43:07.532Z,93690.34
2023-03-04T00:43:39.312Z,93691.94
2023-03-04T00:44:10.931Z,93687.56
2023-03-04T00:44:42.660Z,93696.13
2023-03-04T00:45:14.338Z,93689.97
2023-03-04T00:45:46.015Z,93688.38
2023-03-04T00:46:17.711Z,93693.53
2023-03-04T00:46:49.347Z,93686.75
2023-03-04T00:47:20.939Z,93691.94
2023-03-04T00:47:52.551Z,93687.56
2023-03-04T00:48:24.284Z,93690.34
2023-03-04T00:48:55.860Z,93690.34
2023-03-04T00:49:27.563Z,93686.75
2023-03-04T00:49:59.166Z,93682.56
2023-03-04T00:50:30.904Z,93686.34
2023-03-04T00:51:02.508Z,93686.13
2023-03-04T00:51:34.393Z,93685.53
2023-03-04T00:52:06.158Z,93689.13
2023-03-04T00:52:37.841Z,93683.94
2023-03-04T00:53:10.099Z,93683.94
2023-03-04T00:53:41.678Z,93684.75
2023-03-04T00:54:13.365Z,93689.13
2023-03-04T00:54:44.966Z,93683.13
2023-03-04T00:55:16.602Z,93685.72
2023-03-04T00:55:48.221Z,93683.13
2023-03-04T00:56:19.857Z,93680.72
2023-03-04T00:56:51.490Z,93678.94
2023-03-04T00:57:23.164Z,93679.75
2023-03-04T00:57:54.860Z,93675.38
2023-03-04T00:58:26.554Z,93678.75
2023-03-04T00:58:58.225Z,93673.59
2023-03-04T00:59:29.857Z,93673.59
2023-03-04T01:00:01.411Z,93677.16
2023-03-04T01:00:33.093Z,93677.16
2023-03-04T01:01:04.968Z,93673.59
2023-03-04T01:01:36.663Z,93676.19
2023-03-04T01:02:08.344Z,93681.53
2023-03-04T01:02:39.962Z,93677.16
2023-03-04T01:03:11.647Z,93675.56
2023-03-04T01:03:43.306Z,93676.75
2023-03-04T01:04:14.908Z,93669.16
2023-03-04T01:04:46.528Z,93681.13
2023-03-04T01:05:18.211Z,93684.69
2023-03-04T01:05:49.758Z,93683.66
2023-03-04T01:06:21.529Z,93676.28
2023-03-04T01:06:53.184Z,93678.06
2023-03-04T01:07:24.734Z,93676.66
2023-03-04T01:07:56.326Z,93676.66
2023-03-04T01:08:27.998Z,93671.69
2023-03-04T01:08:59.592Z,93677.84
2023-03-04T01:09:31.554Z,93677.84
2023-03-04T01:10:03.237Z,93676.84
2023-03-04T01:10:34.813Z,93675.25
2023-03-04T01:11:07.081Z,93676.25
2023-03-04T01:11:38.757Z,93679.44
2023-03-04T01:12:10.340Z,93675.06
2023-03-04T01:12:42.526Z,93675.06
2023-03-04T01:13:14.365Z,93677.66
2023-03-04T01:13:46.327Z,93674.88
2023-03-04T01:14:18.049Z,93669.50
2023-03-04T01:14:49.745Z,93674.50
2023-03-04T01:15:21.393Z,93668.34
2023-03-04T01:15:53.123Z,93674.28
2023-03-04T01:16:24.842Z,93671.53
2023-03-04T01:16:56.537Z,93666.16
2023-03-04T01:17:28.140Z,93669.56
2023-03-04T01:17:59.729Z,93668.38
2023-03-04T01:18:31.447Z,93666.56
2023-03-04T01:19:03.067Z,93671.56
2023-03-04T01:19:34.621Z,93665.59
2023-03-04T01:20:10.393Z,93663.63
2023-03-04T01:20:42.057Z,93661.03
2023-03-04T01:21:14.124Z,93665.19
2023-03-04T01:21:45.763Z,93668.22
2023-03-04T01:22:19.189Z,93660.66
2023-03-04T01:22:50.764Z,93664.84
2023-03-04T01:23:22.501Z,93663.84
2023-03-04T01:23:54.115Z,93662.06
2023-03-04T01:24:25.775Z,93667.03
2023-03-04T01:24:57.470Z,93666.63
2023-03-04T01:25:29.050Z,93656.09
2023-03-04T01:26:00.752Z,93667.25
2023-03-04T01:26:32.396Z,93662.06
2023-03-04T01:27:04.152Z,93665.44
2023-03-04T01:27:35.792Z,93661.06
2023-03-04T01:28:07.394Z,93655.88
2023-03-04T01:28:39.025Z,93663.22
2023-03-04T01:29:10.856Z,93666.00
2023-03-04T01:29:42.515Z,93662.63
2023-03-04T01:30:14.268Z,93661.03
2023-03-04T01:30:46.010Z,93661.22
2023-03-04T01:31:17.742Z,93658.81
2023-03-04T01:31:49.422Z,93662.38
2023-03-04T01:32:21.241Z,93655.63
2023-03-04T01:32:52.944Z,93657.41
2023-03-04T01:33:24.566Z,93659.22
2023-03-04T01:33:56.193Z,93657.41
2023-03-04T01:34:27.805Z,93660.81
2023-03-04T01:34:59.453Z,93660.59
2023-03-04T01:35:31.236Z,93653.63
2023-03-04T01:36:02.872Z,93657.22
2023-03-04T01:36:34.488Z,93658.00
2023-03-04T01:37:06.130Z,93662.38
2023-03-04T01:37:37.790Z,93658.00
2023-03-04T01:38:09.449Z,93657.03
2023-03-04T01:38:41.091Z,93649.25
2023-03-04T01:39:12.711Z,93654.44
2023-03-04T01:39:44.390Z,93650.06
2023-03-04T01:40:16.051Z,93658.63
2023-03-04T01:40:49.314Z,93652.47
2023-03-04T01:41:25.455Z,93655.25
2023-03-04T01:41:57.021Z,93651.66
2023-03-04T01:42:31.015Z,93653.28
2023-03-04T01:43:02.849Z,93655.66
2023-03-04T01:43:36.106Z,93655.66
2023-03-04T01:44:09.892Z,93653.06
2023-03-04T01:44:41.617Z,93657.25
2023-03-04T01:45:17.776Z,93654.84
2023-03-04T01:45:50.611Z,93655.88
2023-03-04T01:46:22.440Z,93648.09
2023-03-04T01:46:55.255Z,93655.88
2023-03-04T01:47:29.373Z,93648.88
2023-03-04T01:48:01.034Z,93664.59
2023-03-04T01:48:37.378Z,93652.66
2023-03-04T01:49:10.392Z,93657.22
2023-03-04T01:49:42.158Z,93655.63
2023-03-04T01:50:18.157Z,93654.03
2023-03-04T01:50:49.713Z,93654.03
2023-03-04T01:51:21.865Z,93652.44
2023-03-04T01:51:54.651Z,93656.00
2023-03-04T01:52:27.640Z,93658.00
2023-03-04T01:52:59.619Z,93654.38
2023-03-04T01:53:32.291Z,93651.00
2023-03-04T01:54:03.942Z,93652.00
2023-03-04T01:54:35.583Z,93646.84
2023-03-04T01:55:15.934Z,93649.97
2023-03-04T01:55:48.295Z,93646.59
2023-03-04T01:56:24.005Z,93644.19
2023-03-04T01:56:55.598Z,93648.41
2023-03-04T01:57:27.322Z,93638.03
2023-03-04T01:57:58.947Z,93646.41
2023-03-04T01:58:32.154Z,93648.41
2023-03-04T01:59:09.595Z,93641.63
2023-03-04T01:59:41.499Z,93643.22
2023-03-04T02:00:15.866Z,93648.41
2023-03-04T02:00:47.540Z,93647.38
2023-03-04T02:01:19.185Z,93643.22
2023-03-04T02:01:53.917Z,93644.38
2023-03-04T02:02:25.594Z,93646.00
2023-03-04T02:03:09.141Z,93641.63
2023-03-04T02:03:40.850Z,93643.59
2023-03-04T02:04:12.938Z,93635.81
2023-03-04T02:04:44.758Z,93638.22
2023-03-04T02:05:16.456Z,93638.22
2023-03-04T02:05:50.460Z,93634.84
2023-03-04T02:06:22.066Z,93639.03
2023-03-04T02:06:54.095Z,93635.63
2023-03-04T02:07:25.800Z,93640.00
2023-03-04T02:07:58.233Z,93642.59
2023-03-04T02:08:29.955Z,93633.84
2023-03-04T02:09:01.584Z,93638.22
2023-03-04T02:09:34.231Z,93638.41
2023-03-04T02:10:06.272Z,93632.25
2023-03-04T02:10:38.728Z,93635.00
2023-03-04T02:11:10.327Z,93637.59
2023-03-04T02:11:42.768Z,93634.22
2023-03-04T02:12:14.395Z,93641.97
2023-03-04T02:12:46.145Z,93636.81
2023-03-04T02:13:18.257Z,93638.41
2023-03-04T02:13:49.962Z,93637.59
2023-03-04T02:14:22.383Z,93632.63
2023-03-04T02:14:54.920Z,93632.63
2023-03-04T02:15:26.510Z,93630.06
2023-03-04T02:15:58.200Z,93628.44
2023-03-04T02:16:29.818Z,93628.44
2023-03-04T02:17:01.466Z,93634.44
2023-03-04T02:17:33.594Z,93638.78
2023-03-04T02:18:20.901Z,93636.38
2023-03-04T02:18:52.574Z,93632.03
2023-03-04T02:19:26.767Z,93633.63
2023-03-04T02:20:33.044Z,93632.41
2023-03-04T02:21:13.049Z,93626.00
2023-03-04T02:21:44.603Z,93626.00
2023-03-04T02:22:16.254Z,93628.41
2023-03-04T02:22:57.664Z,93632.78
2023-03-04T02:23:47.372Z,93625.00
2023-03-04T02:24:49.303Z,93621.59
2023-03-04T02:25:25.929Z,93624.19
2023-03-04T02:26:13.761Z,93622.38
2023-03-04T02:26:46.999Z,93627.53
2023-03-04T02:27:21.007Z,93624.19
2023-03-04T02:27:53.549Z,93625.53
2023-03-04T02:28:25.159Z,93625.53
2023-03-04T02:28:58.397Z,93626.28
2023-03-04T02:29:30.006Z,93629.25
2023-03-04T02:30:01.680Z,93631.84
2023-03-04T02:30:33.294Z,93630.06
2023-03-04T02:31:05.084Z,93627.28
2023-03-04T02:31:39.544Z,93621.50
2023-03-04T02:32:12.834Z,93624.66
2023-03-04T02:32:44.523Z,93624.81
2023-03-04T02:33:18.040Z,93625.81
2023-03-04T02:33:50.650Z,93632.97
2023-03-04T02:34:29.382Z,93624.59
2023-03-04T02:35:01.025Z,93631.38
2023-03-04T02:35:32.849Z,93630.16
2023-03-04T02:36:04.646Z,93630.75
2023-03-04T02:36:36.555Z,93627.16
2023-03-04T02:37:10.911Z,93627.16
2023-03-04T02:37:42.565Z,93637.50
2023-03-04T02:38:14.227Z,93623.44
2023-03-04T02:38:45.913Z,93628.59
2023-03-04T02:39:20.161Z,93629.41
2023-03-04T02:39:51.884Z,93623.22
2023-03-04T02:40:26.620Z,93622.25
2023-03-04T02:40:58.500Z,93624.66
2023-03-04T02:41:30.587Z,93623.44
2023-03-04T02:42:03.808Z,93621.66
2023-03-04T02:42:35.456Z,93628.28
2023-03-04T02:43:07.184Z,93621.09
2023-03-04T02:43:38.853Z,93627.69
2023-03-04T02:44:22.399Z,93625.13
2023-03-04T02:45:01.244Z,93624.31
2023-03-04T02:45:37.195Z,93627.53
2023-03-04T02:46:12.095Z,93623.16
2023-03-04T02:46:43.919Z,93626.31
2023-03-04T02:47:20.538Z,93627.13
2023-03-04T02:47:52.198Z,93612.81
2023-03-04T02:48:26.758Z,93626.31
2023-03-04T02:48:58.335Z,93627.94
2023-03-04T02:49:31.182Z,93620.00
2023-03-04T02:50:02.817Z,93624.97
2023-03-04T02:50:39.172Z,93628.34
2023-03-04T02:51:11.125Z,93628.00
2023-03-04T02:51:42.751Z,93621.63
2023-03-04T02:52:18.302Z,93627.41
2023-03-04T02:52:49.897Z,93630.41
2023-03-04T02:53:22.441Z,93626.84
2023-03-04T02:53:53.994Z,93624.88
2023-03-04T02:54:25.592Z,93625.47
2023-03-04T02:54:57.269Z,93627.69
2023-03-04T02:55:29.692Z,93620.53
2023-03-04T02:56:01.322Z,93619.53
2023-03-04T02:56:33.042Z,93626.72
2023-03-04T02:57:08.003Z,93621.38
2023-03-04T02:57:39.597Z,93623.78
2023-03-04T02:58:11.957Z,93621.78
2023-03-04T02:58:43.550Z,93623.19
2023-03-04T02:59:15.277Z,93623.78
2023-03-04T02:59:46.950Z,93618.25
2023-03-04T03:00:18.727Z,93614.69
2023-03-04T03:00:50.369Z,93616.88
2023-03-04T03:01:22.108Z,93625.25
2023-03-04T03:01:53.920Z,93613.88
2023-03-04T03:02:27.132Z,93622.66
2023-03-04T03:02:58.993Z,93617.28
2023-03-04T03:03:30.668Z,93613.69
2023-03-04T03:04:02.336Z,93618.69
2023-03-04T03:04:35.120Z,93621.28
2023-03-04T03:05:06.965Z,93621.09
2023-03-04T03:05:39.398Z,93619.91
2023-03-04T03:06:11.085Z,93618.91
2023-03-04T03:06:42.703Z,93624.72
2023-03-04T03:07:14.384Z,93624.31
2023-03-04T03:07:46.112Z,93617.94
2023-03-04T03:08:17.702Z,93617.94
2023-03-04T03:08:49.316Z,93626.31
2023-03-04T03:09:21.459Z,93619.16
2023-03-04T03:09:53.022Z,93621.53
2023-03-04T03:10:24.797Z,93619.56
2023-03-04T03:10:56.489Z,93627.97
2023-03-04T03:11:28.090Z,93622.56
2023-03-04T03:11:59.787Z,93620.78
2023-03-04T03:12:31.421Z,93619.00
2023-03-04T03:13:03.321Z,93617.81
2023-03-04T03:13:34.969Z,93624.56
2023-03-04T03:14:06.633Z,93618.41
2023-03-04T03:14:38.265Z,93620.00
2023-03-04T03:15:10.286Z,93624.22
2023-03-04T03:15:42.540Z,93616.25
2023-03-04T03:16:14.198Z,93618.63
2023-03-04T03:16:45.885Z,93620.22
2023-03-04T03:17:17.529Z,93614.06
2023-03-04T03:17:49.250Z,93621.66
2023-03-04T03:18:20.917Z,93624.03
2023-03-04T03:18:52.593Z,93617.84
2023-03-04T03:19:24.175Z,93619.47
2023-03-04T03:19:56.671Z,93626.03
2023-03-04T03:20:28.212Z,93620.66
2023-03-04T03:20:59.795Z,93621.28
2023-03-04T03:21:31.459Z,93617.69
2023-03-04T03:22:03.175Z,93616.69
2023-03-04T03:22:34.762Z,93626.06
2023-03-04T03:23:06.325Z,93623.28
2023-03-04T03:23:37.901Z,93624.09
2023-03-04T03:24:09.493Z,93618.91
2023-03-04T03:24:41.146Z,93622.06
2023-03-04T03:25:14.244Z,93624.47
2023-03-04T03:25:45.793Z,93619.28
2023-03-04T03:26:18.366Z,93620.72
2023-03-04T03:26:49.992Z,93622.28
2023-03-04T03:27:21.622Z,93617.91
2023-03-04T03:27:53.244Z,93622.91
2023-03-04T03:28:24.836Z,93616.72
2023-03-04T03:28:56.442Z,93619.31
2023-03-04T03:29:28.007Z,93619.31
2023-03-04T03:29:59.634Z,93615.75
2023-03-04T03:30:31.358Z,93620.13
2023-03-04T03:31:03.027Z,93617.31
2023-03-04T03:31:34.790Z,93617.31
2023-03-04T03:32:06.576Z,93617.31
2023-03-04T03:32:38.282Z,93617.31
2023-03-04T03:33:09.956Z,93617.31
2023-03-04T03:33:41.581Z,93611.16
2023-03-04T03:34:13.241Z,93618.91
2023-03-04T03:34:44.870Z,93617.31
2023-03-04T03:35:16.495Z,93614.72
2023-03-04T03:35:48.297Z,93619.53
2023-03-04T03:36:20.107Z,93610.16
2023-03-04T03:36:51.744Z,93609.97
2023-03-04T03:37:23.642Z,93615.94
2023-03-04T03:37:55.268Z,93610.78
2023-03-04T03:38:27.650Z,93613.34
2023-03-04T03:38:59.262Z,93618.53
2023-03-04T03:39:30.851Z,93612.38
2023-03-04T03:40:02.817Z,93611.34
2023-03-04T03:40:34.509Z,93609.38
2023-03-04T03:41:06.108Z,93616.97
2023-03-04T03:41:37.674Z,93614.16
2023-03-04T03:42:09.301Z,93615.75
2023-03-04T03:42:41.027Z,93607.78
2023-03-04T03:43:12.603Z,93610.19
2023-03-04T03:43:44.152Z,93614.16
2023-03-04T03:44:16.103Z,93607.19
2023-03-04T03:44:47.844Z,93612.19
2023-03-04T03:45:19.422Z,93610.41
2023-03-04T03:45:52.164Z,93611.38
2023-03-04T03:46:23.891Z,93613.78
2023-03-04T03:46:55.528Z,93614.56
2023-03-04T03:47:27.431Z,93610.41
2023-03-04T03:47:59.015Z,93615.78
2023-03-04T03:48:30.609Z,93617.56
2023-03-04T03:49:02.170Z,93616.75
2023-03-04T03:49:33.758Z,93617.75
2023-03-04T03:50:05.956Z,93608.38
2023-03-04T03:50:37.657Z,93607.78
2023-03-04T03:51:09.595Z,93612.16
2023-03-04T03:51:41.282Z,93611.38
2023-03-04T03:52:13.053Z,93612.16
2023-03-04T03:52:44.631Z,93613.78
2023-03-04T03:53:16.226Z,93617.16
2023-03-04T03:53:47.841Z,93610.19
2023-03-04T03:54:19.575Z,93609.19
2023-03-04T03:54:51.251Z,93614.56
2023-03-04T03:55:23.274Z,93614.75
2023-03-04T03:55:54.924Z,93614.94
2023-03-04T03:56:26.508Z,93608.97
2023-03-04T03:56:58.192Z,93607.97
2023-03-04T03:57:30.166Z,93607.97
2023-03-04T03:58:01.736Z,93612.34
2023-03-04T03:58:33.369Z,93613.97
2023-03-04T03:59:05.002Z,93614.16
2023-03-04T03:59:36.623Z,93608.16
2023-03-04T04:00:10.355Z,93611.78
2023-03-04T04:00:41.924Z,93613.56
2023-03-04T04:01:13.480Z,93618.53
2023-03-04T04:01:45.203Z,93610.75
2023-03-04T04:02:16.918Z,93612.56
2023-03-04T04:02:48.662Z,93609.97
2023-03-04T04:03:20.761Z,93617.75
2023-03-04T04:03:53.177Z,93614.38
2023-03-04T04:04:24.841Z,93607.59
2023-03-04T04:04:56.529Z,93613.56
2023-03-04T04:05:28.174Z,93608.38
2023-03-04T04:05:59.842Z,93610.97
2023-03-04T04:06:31.467Z,93610.97
2023-03-04T04:07:03.220Z,93602.22
2023-03-04T04:07:34.938Z,93608.38
2023-03-04T04:08:06.621Z,93608.97
2023-03-04T04:08:38.437Z,93608.38
2023-03-04T04:09:10.029Z,93608.16
2023-03-04T04:09:41.681Z,93607.19
2023-03-04T04:10:13.248Z,93606.19
2023-03-04T04:10:45.043Z,93608.59
2023-03-04T04:11:16.714Z,93601.41
2023-03-04T04:11:48.440Z,93605.59
2023-03-04T04:12:20.457Z,93605.22
2023-03-04T04:12:52.078Z,93601.59
2023-03-04T04:13:23.793Z,93602.22
2023-03-04T04:13:55.433Z,93601.22
2023-03-04T04:14:27.012Z,93596.44
2023-03-04T04:14:58.681Z,93599.63
2023-03-04T04:15:30.270Z,93598.66
2023-03-04T04:16:01.908Z,93597.44
2023-03-04T04:16:33.702Z,93600.63
2023-03-04T04:17:05.433Z,93600.22
2023-03-04T04:17:37.058Z,93597.44
2023-03-04T04:18:09.037Z,93601.44
2023-03-04T04:18:40.654Z,93600.25
2023-03-04T04:19:17.995Z,93603.63
2023-03-04T04:19:49.606Z,93601.84
2023-03-04T04:20:21.260Z,93595.44
2023-03-04T04:20:53.754Z,93598.66
2023-03-04T04:21:25.355Z,93599.22
2023-03-04T04:21:56.913Z,93593.06
2023-03-04T04:22:28.486Z,93603.03
2023-03-04T04:23:00.070Z,93602.25
2023-03-04T04:23:31.893Z,93603.03
2023-03-04T04:24:03.569Z,93594.25
2023-03-04T04:24:36.048Z,93595.25
2023-03-04T04:25:10.655Z,93588.47
2023-03-04T04:25:42.302Z,93598.25
2023-03-04T04:26:13.916Z,93601.63
2023-03-04T04:26:45.524Z,93601.44
2023-03-04T04:27:17.136Z,93599.03
2023-03-04T04:27:48.705Z,93594.66
2023-03-04T04:28:20.359Z,93593.06
2023-03-04T04:28:52.017Z,93592.25
2023-03-04T04:29:23.642Z,93596.63
2023-03-04T04:29:55.324Z,93587.88
2023-03-04T04:30:26.965Z,93588.09
2023-03-04T04:30:58.627Z,93593.47
2023-03-04T04:31:30.243Z,93586.69
2023-03-04T04:32:01.939Z,93597.66
2023-03-04T04:32:33.642Z,93599.66
2023-03-04T04:33:05.293Z,93598.66
2023-03-04T04:33:36.897Z,93596.44
2023-03-04T04:34:09.033Z,93592.28
2023-03-04T04:34:40.717Z,93599.44
2023-03-04T04:35:12.477Z,93594.25
2023-03-04T04:35:44.155Z,93592.66
2023-03-04T04:36:20.856Z,93595.44
2023-03-04T04:36:53.066Z,93597.44
2023-03-04T04:37:24.634Z,93593.06
2023-03-04T04:37:56.715Z,93599.25
2023-03-04T04:38:28.441Z,93597.63
2023-03-04T04:39:00.190Z,93591.47
2023-03-04T04:39:31.895Z,93599.25
2023-03-04T04:40:04.381Z,93596.66
2023-03-04T04:40:36.529Z,93601.22
2023-03-04T04:41:19.256Z,93598.03
2023-03-04T04:41:50.884Z,93592.25
2023-03-04T04:42:22.773Z,93601.81
2023-03-04T04:42:54.367Z,93596.81
2023-03-04T04:43:26.125Z,93595.84
2023-03-04T04:43:57.743Z,93597.63
2023-03-04T04:44:29.371Z,93606.22
2023-03-04T04:45:01.136Z,93599.22
2023-03-04T04:45:32.792Z,93595.03
2023-03-04T04:46:04.556Z,93594.84
2023-03-04T04:46:36.896Z,93602.63
2023-03-04T04:47:09.947Z,93599.22
2023-03-04T04:47:41.656Z,93603.63
2023-03-04T04:48:13.296Z,93599.41
2023-03-04T04:48:45.036Z,93601.03
2023-03-04T04:49:16.634Z,93605.22
2023-03-04T04:49:48.242Z,93604.22
2023-03-04T04:50:20.026Z,93605.81
2023-03-04T04:50:56.340Z,93604.22
2023-03-04T04:51:28.375Z,93603.25
2023-03-04T04:52:00.055Z,93601.63
2023-03-04T04:52:31.660Z,93601.63
2023-03-04T04:53:03.421Z,93605.81
2023-03-04T04:53:35.226Z,93599.03
2023-03-04T04:54:07.624Z,93602.44
2023-03-04T04:54:39.227Z,93600.63
2023-03-04T04:55:11.121Z,93593.66
2023-03-04T04:55:42.798Z,93600.41
2023-03-04T04:56:16.813Z,93599.44
2023-03-04T04:56:48.585Z,93594.25
2023-03-04T04:57:20.214Z,93602.63
2023-03-04T04:57:51.880Z,93593.88
2023-03-04T04:58:23.780Z,93597.84
2023-03-04T04:58:57.784Z,93596.84
2023-03-04T04:59:29.383Z,93601.03
2023-03-04T05:00:01.049Z,93595.44
2023-03-04T05:00:32.608Z,93593.47
2023-03-04T05:01:05.039Z,93597.03
2023-03-04T05:01:36.729Z,93591.88
2023-03-04T05:02:08.378Z,93591.88
2023-03-04T05:02:39.939Z,93598.66
2023-03-04T05:03:11.567Z,93599.44
2023-03-04T05:03:43.412Z,93599.22
2023-03-04T05:04:15.089Z,93590.47
2023-03-04T05:04:46.705Z,93598.25
2023-03-04T05:05:18.313Z,93589.47
2023-03-04T05:05:49.907Z,93592.84
2023-03-04T05:06:23.856Z,93591.06
2023-03-04T05:06:55.456Z,93592.66
2023-03-04T05:07:27.008Z,93594.25
2023-03-04T05:07:58.853Z,93593.84
2023-03-04T05:08:30.506Z,93597.25
2023-03-04T05:09:02.382Z,93595.25
2023-03-04T05:09:34.088Z,93590.84
2023-03-04T05:10:05.996Z,93590.84
2023-03-04T05:10:38.192Z,93595.66
2023-03-04T05:11:09.811Z,93593.06
2023-03-04T05:11:41.457Z,93591.03
2023-03-04T05:12:13.215Z,93597.03
2023-03-04T05:12:45.295Z,93595.84
2023-03-04T05:13:17.014Z,93591.47
2023-03-04T05:13:49.497Z,93599.03
2023-03-04T05:14:21.053Z,93596.25
2023-03-04T05:14:52.673Z,93593.47
2023-03-04T05:15:25.097Z,93596.63
2023-03-04T05:15:56.989Z,93599.81
2023-03-04T05:16:28.632Z,93596.25
2023-03-04T05:17:00.321Z,93600.44
2023-03-04T05:17:31.895Z,93595.03
2023-03-04T05:18:03.545Z,93591.44
2023-03-04T05:18:35.192Z,93595.44
2023-03-04T05:19:07.037Z,93596.81
2023-03-04T05:19:38.657Z,93592.44
2023-03-04T05:20:11.079Z,93592.25
2023-03-04T05:20:42.702Z,93593.84
2023-03-04T05:21:14.597Z,93591.03
2023-03-04T05:21:46.236Z,93593.41
2023-03-04T05:22:17.876Z,93593.22
2023-03-04T05:22:49.559Z,93592.22
2023-03-04T05:23:21.253Z,93598.19
2023-03-04T05:23:52.872Z,93592.00
2023-03-04T05:24:24.549Z,93590.22
2023-03-04T05:24:57.301Z,93597.81
2023-03-04T05:25:29.110Z,93594.22
2023-03-04T05:26:01.333Z,93589.03
2023-03-04T05:26:33.297Z,93591.63
2023-03-04T05:27:04.899Z,93591.41
2023-03-04T05:27:36.516Z,93589.41
2023-03-04T05:28:12.562Z,93589.41
2023-03-04T05:28:44.949Z,93596.22
2023-03-04T05:29:16.600Z,93591.81
2023-03-04T05:29:48.137Z,93593.41
2023-03-04T05:30:19.831Z,93590.59
2023-03-04T05:30:51.516Z,93593.19
2023-03-04T05:31:23.275Z,93596.38
2023-03-04T05:31:54.927Z,93595.41
2023-03-04T05:32:26.960Z,93591.00
2023-03-04T05:32:58.612Z,93591.00
2023-03-04T05:33:30.599Z,93593.38
2023-03-04T05:34:02.283Z,93594.19
2023-03-04T05:34:33.892Z,93593.97
2023-03-04T05:35:06.520Z,93593.97
2023-03-04T05:35:39.112Z,93595.78
2023-03-04T05:36:10.834Z,93598.19
2023-03-04T05:36:42.444Z,93593.00
2023-03-04T05:37:14.076Z,93588.59
2023-03-04T05:37:45.684Z,93596.16
2023-03-04T05:38:19.589Z,93596.97
2023-03-04T05:38:51.405Z,93586.56
2023-03-04T05:39:22.998Z,93593.38
2023-03-04T05:39:54.624Z,93590.56
2023-03-04T05:40:26.261Z,93594.78
2023-03-04T05:40:59.542Z,93588.78
2023-03-04T05:41:31.206Z,93584.38
2023-03-04T05:42:02.758Z,93594.53
2023-03-04T05:42:34.373Z,93589.34
2023-03-04T05:43:06.168Z,93589.16
2023-03-04T05:43:42.915Z,93595.16
2023-03-04T05:44:14.727Z,93591.75
2023-03-04T05:44:46.366Z,93597.56
2023-03-04T05:45:18.112Z,93596.53
2023-03-04T05:45:50.031Z,93593.75
2023-03-04T05:46:25.694Z,93593.75
2023-03-04T05:46:57.473Z,93593.75
2023-03-04T05:47:29.009Z,93590.94
2023-03-04T05:48:00.712Z,93594.34
2023-03-04T05:48:32.376Z,93590.94
2023-03-04T05:49:04.139Z,93587.34
2023-03-04T05:49:35.785Z,93592.53
2023-03-04T05:50:07.827Z,93594.13
2023-03-04T05:50:39.461Z,93588.91
2023-03-04T05:51:11.382Z,93590.53
2023-03-04T05:51:43.031Z,93589.53
2023-03-04T05:52:14.657Z,93588.53
2023-03-04T05:52:46.431Z,93588.53
2023-03-04T05:53:17.967Z,93592.72
2023-03-04T05:53:49.951Z,93593.31
2023-03-04T05:54:21.857Z,93588.91
2023-03-04T05:54:53.511Z,93594.09
2023-03-04T05:55:25.316Z,93595.72
2023-03-04T05:55:56.998Z,93590.31
2023-03-04T05:56:30.155Z,93592.91
2023-03-04T05:57:02.551Z,93601.50
2023-03-04T05:57:34.164Z,93596.09
2023-03-04T05:58:05.699Z,93602.06
2023-03-04T05:58:37.473Z,93597.69
2023-03-04T05:59:09.069Z,93602.88
2023-03-04T05:59:40.620Z,93602.88
2023-03-04T06:00:13.457Z,93601.88
2023-03-04T06:00:45.688Z,93606.09
2023-03-04T06:01:17.714Z,93605.28
2023-03-04T06:01:49.484Z,93602.44
2023-03-04T06:02:21.059Z,93607.66
2023-03-04T06:02:52.784Z,93605.06
2023-03-04T06:03:25.388Z,93606.66
2023-03-04T06:03:57.220Z,93605.66
2023-03-04T06:04:28.836Z,93604.66
2023-03-04T06:05:00.632Z,93602.06
2023-03-04T06:05:32.271Z,93608.84
2023-03-04T06:06:04.260Z,93608.84
2023-03-04T06:06:35.929Z,93609.66
2023-03-04T06:07:07.596Z,93609.66
2023-03-04T06:07:39.216Z,93608.84
2023-03-04T06:08:12.004Z,93612.47
2023-03-04T06:08:43.724Z,93616.84
2023-03-04T06:09:15.334Z,93616.06
2023-03-04T06:09:46.877Z,93616.06
2023-03-04T06:10:18.784Z,93614.44
2023-03-04T06:10:53.435Z,93609.25
2023-03-04T06:11:25.068Z,93617.84
2023-03-04T06:11:56.638Z,93614.44
2023-03-04T06:12:28.936Z,93617.03
2023-03-04T06:13:00.506Z,93614.44
2023-03-04T06:13:32.504Z,93616.06
2023-03-04T06:14:04.109Z,93616.06
2023-03-04T06:14:35.734Z,93612.47
2023-03-04T06:15:10.169Z,93612.47
2023-03-04T06:15:41.871Z,93613.25
2023-03-04T06:16:13.535Z,93619.25
2023-03-04T06:16:45.180Z,93615.66
2023-03-04T06:17:16.948Z,93621.63
2023-03-04T06:17:48.536Z,93618.84
2023-03-04T06:18:20.210Z,93621.44
2023-03-04T06:18:51.830Z,93619.81